Denver, Colorado
Traffic Map
Current Weather Conditions
Denver, Colorado
Broken Clouds
Broken Clouds
74°
Feels Like: 74°
Wind Chill: 74° Ceiling: 22000
Heat Index: 74° Visibility: 10mi
Dew Point: 59° Wind: 2mph
Humidity: 59% Direction: ° ()
Pressure: 30.28in Gusts: 0mph
Raw Report DataKBKF 291658Z VRB02KT 10SM FEW070 SCT110 BKN220 23/15 A3028 RMK AO2A SLP182 T02320148
Traffic Incident Summary
Active as of:
Severity:
Category:
InformationThere was an issue retrieving the traffic information for this location. Please try a different location or try again shortly.
Advertisements
Track Severe Weather on mobile